sensor_id;sensor_type;location;lat;lon;timestamp;temperature;humidity
14471;DHT22;7321;50.802;4.336;2022-07-29T00:00:42;20.30;99.90
14471;DHT22;7321;50.802;4.336;2022-07-29T00:03:11;20.20;99.90
14471;DHT22;7321;50.802;4.336;2022-07-29T00:05:39;20.20;99.90
14471;DHT22;7321;50.802;4.336;2022-07-29T00:08:05;20.40;99.90
14471;DHT22;7321;50.802;4.336;2022-07-29T00:10:31;20.40;99.90
14471;DHT22;7321;50.802;4.336;2022-07-29T00:12:57;20.50;99.90
14471;DHT22;7321;50.802;4.336;2022-07-29T00:15:22;20.60;99.90
14471;DHT22;7321;50.802;4.336;2022-07-29T00:17:48;20.60;99.90
14471;DHT22;7321;50.802;4.336;2022-07-29T00:20:14;20.50;99.90
14471;DHT22;7321;50.802;4.336;2022-07-29T00:22:40;20.50;99.90
14471;DHT22;7321;50.802;4.336;2022-07-29T00:25:06;20.40;99.90
14471;DHT22;7321;50.802;4.336;2022-07-29T00:27:34;20.40;99.90
14471;DHT22;7321;50.802;4.336;2022-07-29T00:30:00;20.50;99.90
14471;DHT22;7321;50.802;4.336;2022-07-29T00:32:26;20.30;99.90
14471;DHT22;7321;50.802;4.336;2022-07-29T00:34:52;20.20;99.90
14471;DHT22;7321;50.802;4.336;2022-07-29T00:37:36;20.20;99.90
14471;DHT22;7321;50.802;4.336;2022-07-29T00:40:02;20.00;99.90
14471;DHT22;7321;50.802;4.336;2022-07-29T00:42:28;19.90;99.90
14471;DHT22;7321;50.802;4.336;2022-07-29T00:44:54;19.80;99.90
14471;DHT22;7321;50.802;4.336;2022-07-29T00:47:20;19.90;99.90
14471;DHT22;7321;50.802;4.336;2022-07-29T00:49:45;19.90;99.90
14471;DHT22;7321;50.802;4.336;2022-07-29T00:52:11;19.90;99.90
14471;DHT22;7321;50.802;4.336;2022-07-29T00:54:40;19.90;99.90
14471;DHT22;7321;50.802;4.336;2022-07-29T00:57:07;19.90;99.90
14471;DHT22;7321;50.802;4.336;2022-07-29T00:59:33;19.90;99.90
14471;DHT22;7321;50.802;4.336;2022-07-29T01:01:59;19.90;99.90
14471;DHT22;7321;50.802;4.336;2022-07-29T01:04:25;19.80;99.90
14471;DHT22;7321;50.802;4.336;2022-07-29T01:06:54;19.70;99.90
14471;DHT22;7321;50.802;4.336;2022-07-29T01:09:20;19.70;99.90
14471;DHT22;7321;50.802;4.336;2022-07-29T01:11:47;19.70;99.90
14471;DHT22;7321;50.802;4.336;2022-07-29T01:14:14;19.60;99.90
14471;DHT22;7321;50.802;4.336;2022-07-29T01:16:51;19.60;99.90
14471;DHT22;7321;50.802;4.336;2022-07-29T01:25:17;19.60;99.90
14471;DHT22;7321;50.802;4.336;2022-07-29T01:27:59;19.70;99.90
14471;DHT22;7321;50.802;4.336;2022-07-29T01:30:27;19.60;99.90
14471;DHT22;7321;50.802;4.336;2022-07-29T01:33:00;19.50;99.90
14471;DHT22;7321;50.802;4.336;2022-07-29T01:35:33;19.50;99.90
14471;DHT22;7321;50.802;4.336;2022-07-29T01:40:34;19.40;99.90
14471;DHT22;7321;50.802;4.336;2022-07-29T01:43:09;19.50;99.90
14471;DHT22;7321;50.802;4.336;2022-07-29T01:45:46;19.40;99.90
14471;DHT22;7321;50.802;4.336;2022-07-29T01:48:40;19.40;99.90
14471;DHT22;7321;50.802;4.336;2022-07-29T01:56:16;19.10;99.90
14471;DHT22;7321;50.802;4.336;2022-07-29T01:58:45;19.10;99.90
14471;DHT22;7321;50.802;4.336;2022-07-29T02:01:13;19.20;99.90
14471;DHT22;7321;50.802;4.336;2022-07-29T02:03:44;19.20;99.90
14471;DHT22;7321;50.802;4.336;2022-07-29T02:06:11;19.20;99.90
14471;DHT22;7321;50.802;4.336;2022-07-29T02:08:38;19.20;99.90
14471;DHT22;7321;50.802;4.336;2022-07-29T02:11:06;19.10;99.90
14471;DHT22;7321;50.802;4.336;2022-07-29T02:13:36;19.20;99.90
14471;DHT22;7321;50.802;4.336;2022-07-29T02:16:05;19.20;99.90
14471;DHT22;7321;50.802;4.336;2022-07-29T02:18:33;19.10;99.90
14471;DHT22;7321;50.802;4.336;2022-07-29T02:21:02;19.00;99.90
14471;DHT22;7321;50.802;4.336;2022-07-29T02:23:30;19.00;99.90
14471;DHT22;7321;50.802;4.336;2022-07-29T02:25:57;19.00;99.90
14471;DHT22;7321;50.802;4.336;2022-07-29T02:28:26;19.10;99.90
14471;DHT22;7321;50.802;4.336;2022-07-29T02:30:55;19.10;99.90
14471;DHT22;7321;50.802;4.336;2022-07-29T02:33:24;18.90;99.90
14471;DHT22;7321;50.802;4.336;2022-07-29T02:35:52;18.80;99.90
14471;DHT22;7321;50.802;4.336;2022-07-29T02:38:18;18.80;99.90
14471;DHT22;7321;50.802;4.336;2022-07-29T02:41:26;18.80;99.90
14471;DHT22;7321;50.802;4.336;2022-07-29T02:44:05;18.80;99.90
14471;DHT22;7321;50.802;4.336;2022-07-29T02:46:34;18.80;99.90
14471;DHT22;7321;50.802;4.336;2022-07-29T02:49:15;18.70;99.90
14471;DHT22;7321;50.802;4.336;2022-07-29T02:51:46;18.80;99.90
14471;DHT22;7321;50.802;4.336;2022-07-29T02:54:33;18.80;99.90
14471;DHT22;7321;50.802;4.336;2022-07-29T02:57:10;18.80;99.90
14471;DHT22;7321;50.802;4.336;2022-07-29T02:59:37;18.80;99.90
14471;DHT22;7321;50.802;4.336;2022-07-29T03:02:08;18.70;99.90
14471;DHT22;7321;50.802;4.336;2022-07-29T03:04:35;18.70;99.90
14471;DHT22;7321;50.802;4.336;2022-07-29T03:07:03;18.80;99.90
14471;DHT22;7321;50.802;4.336;2022-07-29T03:09:30;18.60;99.90
14471;DHT22;7321;50.802;4.336;2022-07-29T03:11:57;18.60;99.90
14471;DHT22;7321;50.802;4.336;2022-07-29T03:14:23;18.60;99.90
14471;DHT22;7321;50.802;4.336;2022-07-29T03:16:50;18.60;99.90
14471;DHT22;7321;50.802;4.336;2022-07-29T03:19:19;18.50;99.90
14471;DHT22;7321;50.802;4.336;2022-07-29T03:21:45;18.50;99.90
14471;DHT22;7321;50.802;4.336;2022-07-29T03:24:24;18.50;99.90
14471;DHT22;7321;50.802;4.336;2022-07-29T03:26:50;18.50;99.90
14471;DHT22;7321;50.802;4.336;2022-07-29T03:29:16;18.50;99.90
14471;DHT22;7321;50.802;4.336;2022-07-29T03:31:42;18.50;99.90
14471;DHT22;7321;50.802;4.336;2022-07-29T03:34:07;18.50;99.90
14471;DHT22;7321;50.802;4.336;2022-07-29T03:36:33;18.40;99.90
14471;DHT22;7321;50.802;4.336;2022-07-29T03:39:00;18.50;99.90
14471;DHT22;7321;50.802;4.336;2022-07-29T03:41:27;18.70;99.90
14471;DHT22;7321;50.802;4.336;2022-07-29T03:43:54;18.80;99.90
14471;DHT22;7321;50.802;4.336;2022-07-29T03:46:22;18.70;99.90
14471;DHT22;7321;50.802;4.336;2022-07-29T03:48:53;18.90;99.90
14471;DHT22;7321;50.802;4.336;2022-07-29T03:51:21;18.90;99.90
14471;DHT22;7321;50.802;4.336;2022-07-29T03:53:47;18.80;99.90
14471;DHT22;7321;50.802;4.336;2022-07-29T03:56:15;19.00;99.90
14471;DHT22;7321;50.802;4.336;2022-07-29T03:58:42;18.90;99.90
14471;DHT22;7321;50.802;4.336;2022-07-29T04:01:10;18.80;99.90
14471;DHT22;7321;50.802;4.336;2022-07-29T04:03:36;18.70;99.90
14471;DHT22;7321;50.802;4.336;2022-07-29T04:06:05;18.80;99.90
14471;DHT22;7321;50.802;4.336;2022-07-29T04:08:32;18.90;99.90
14471;DHT22;7321;50.802;4.336;2022-07-29T04:10:59;18.70;99.90
14471;DHT22;7321;50.802;4.336;2022-07-29T04:13:25;18.80;99.90
14471;DHT22;7321;50.802;4.336;2022-07-29T04:15:50;18.90;99.90
14471;DHT22;7321;50.802;4.336;2022-07-29T04:18:16;18.90;99.90
14471;DHT22;7321;50.802;4.336;2022-07-29T04:20:42;18.80;99.90
14471;DHT22;7321;50.802;4.336;2022-07-29T04:23:08;18.80;99.90
14471;DHT22;7321;50.802;4.336;2022-07-29T04:25:37;18.70;99.90
14471;DHT22;7321;50.802;4.336;2022-07-29T04:28:03;18.70;99.90
14471;DHT22;7321;50.802;4.336;2022-07-29T04:30:29;18.60;99.90
14471;DHT22;7321;50.802;4.336;2022-07-29T04:32:56;18.70;99.90
14471;DHT22;7321;50.802;4.336;2022-07-29T04:35:21;18.70;99.90
14471;DHT22;7321;50.802;4.336;2022-07-29T04:37:47;18.70;99.90
14471;DHT22;7321;50.802;4.336;2022-07-29T04:40:13;18.60;99.90
14471;DHT22;7321;50.802;4.336;2022-07-29T04:42:39;18.50;99.90
14471;DHT22;7321;50.802;4.336;2022-07-29T04:45:05;18.60;99.90
14471;DHT22;7321;50.802;4.336;2022-07-29T04:47:31;18.60;99.90
14471;DHT22;7321;50.802;4.336;2022-07-29T04:49:57;18.60;99.90
14471;DHT22;7321;50.802;4.336;2022-07-29T04:52:24;18.60;99.90
14471;DHT22;7321;50.802;4.336;2022-07-29T04:54:49;18.50;99.90
14471;DHT22;7321;50.802;4.336;2022-07-29T04:57:15;18.50;99.90
14471;DHT22;7321;50.802;4.336;2022-07-29T04:59:41;18.40;99.90
14471;DHT22;7321;50.802;4.336;2022-07-29T05:02:06;18.40;99.90
14471;DHT22;7321;50.802;4.336;2022-07-29T05:04:32;18.40;99.90
14471;DHT22;7321;50.802;4.336;2022-07-29T05:06:58;18.30;99.90
14471;DHT22;7321;50.802;4.336;2022-07-29T05:09:24;18.40;99.90
14471;DHT22;7321;50.802;4.336;2022-07-29T05:11:49;18.40;99.90
14471;DHT22;7321;50.802;4.336;2022-07-29T05:14:15;18.40;99.90
14471;DHT22;7321;50.802;4.336;2022-07-29T05:16:41;18.60;99.90
14471;DHT22;7321;50.802;4.336;2022-07-29T05:19:07;18.70;99.90
14471;DHT22;7321;50.802;4.336;2022-07-29T05:21:33;18.70;99.90
14471;DHT22;7321;50.802;4.336;2022-07-29T05:23:59;18.80;99.90
14471;DHT22;7321;50.802;4.336;2022-07-29T05:26:24;18.70;99.90
14471;DHT22;7321;50.802;4.336;2022-07-29T05:28:50;18.70;99.90
14471;DHT22;7321;50.802;4.336;2022-07-29T05:31:16;18.60;99.90
14471;DHT22;7321;50.802;4.336;2022-07-29T05:33:42;18.60;99.90
14471;DHT22;7321;50.802;4.336;2022-07-29T05:36:07;18.60;99.90
14471;DHT22;7321;50.802;4.336;2022-07-29T05:38:34;18.70;99.90
14471;DHT22;7321;50.802;4.336;2022-07-29T05:41:00;18.60;99.90
14471;DHT22;7321;50.802;4.336;2022-07-29T05:43:27;18.60;99.90
14471;DHT22;7321;50.802;4.336;2022-07-29T05:45:53;18.70;99.90
14471;DHT22;7321;50.802;4.336;2022-07-29T05:48:19;18.70;99.90
14471;DHT22;7321;50.802;4.336;2022-07-29T05:50:46;18.80;99.90
14471;DHT22;7321;50.802;4.336;2022-07-29T05:53:11;18.80;99.90
14471;DHT22;7321;50.802;4.336;2022-07-29T05:55:37;18.60;99.90
14471;DHT22;7321;50.802;4.336;2022-07-29T05:58:03;18.50;99.90
14471;DHT22;7321;50.802;4.336;2022-07-29T06:00:29;18.50;99.90
14471;DHT22;7321;50.802;4.336;2022-07-29T06:02:55;18.60;99.90
14471;DHT22;7321;50.802;4.336;2022-07-29T06:05:22;18.50;99.90
14471;DHT22;7321;50.802;4.336;2022-07-29T06:07:48;18.50;99.90
14471;DHT22;7321;50.802;4.336;2022-07-29T06:10:14;18.60;99.90
14471;DHT22;7321;50.802;4.336;2022-07-29T06:12:40;18.80;99.90
14471;DHT22;7321;50.802;4.336;2022-07-29T06:15:06;18.80;99.90
14471;DHT22;7321;50.802;4.336;2022-07-29T06:17:32;19.00;99.90
14471;DHT22;7321;50.802;4.336;2022-07-29T06:19:57;19.10;99.90
14471;DHT22;7321;50.802;4.336;2022-07-29T06:22:23;19.40;99.90
14471;DHT22;7321;50.802;4.336;2022-07-29T06:24:49;19.50;99.90
14471;DHT22;7321;50.802;4.336;2022-07-29T06:27:15;19.50;99.90
14471;DHT22;7321;50.802;4.336;2022-07-29T06:29:41;19.50;99.90
14471;DHT22;7321;50.802;4.336;2022-07-29T06:32:08;19.40;99.90
14471;DHT22;7321;50.802;4.336;2022-07-29T06:34:35;19.50;99.90
14471;DHT22;7321;50.802;4.336;2022-07-29T06:37:08;19.50;99.90
14471;DHT22;7321;50.802;4.336;2022-07-29T06:39:35;19.50;99.90
14471;DHT22;7321;50.802;4.336;2022-07-29T06:42:03;19.50;99.90
14471;DHT22;7321;50.802;4.336;2022-07-29T06:44:28;19.70;99.90
14471;DHT22;7321;50.802;4.336;2022-07-29T06:46:55;19.90;99.90
14471;DHT22;7321;50.802;4.336;2022-07-29T06:49:21;20.20;99.90
14471;DHT22;7321;50.802;4.336;2022-07-29T06:51:47;20.40;99.90
14471;DHT22;7321;50.802;4.336;2022-07-29T06:54:13;20.80;99.90
14471;DHT22;7321;50.802;4.336;2022-07-29T06:56:39;21.20;99.90
14471;DHT22;7321;50.802;4.336;2022-07-29T06:59:11;21.70;99.90
14471;DHT22;7321;50.802;4.336;2022-07-29T07:01:39;22.00;99.90
14471;DHT22;7321;50.802;4.336;2022-07-29T07:04:06;22.30;99.90
14471;DHT22;7321;50.802;4.336;2022-07-29T07:06:34;22.50;99.90
14471;DHT22;7321;50.802;4.336;2022-07-29T07:09:00;22.70;99.90
14471;DHT22;7321;50.802;4.336;2022-07-29T07:11:26;22.70;99.90
14471;DHT22;7321;50.802;4.336;2022-07-29T07:13:52;22.70;99.90
14471;DHT22;7321;50.802;4.336;2022-07-29T07:16:18;22.70;99.90
14471;DHT22;7321;50.802;4.336;2022-07-29T07:18:43;22.40;99.90
14471;DHT22;7321;50.802;4.336;2022-07-29T07:21:11;22.50;99.90
14471;DHT22;7321;50.802;4.336;2022-07-29T07:23:36;22.40;99.90
14471;DHT22;7321;50.802;4.336;2022-07-29T07:26:03;22.00;99.90
14471;DHT22;7321;50.802;4.336;2022-07-29T07:28:29;21.80;99.90
14471;DHT22;7321;50.802;4.336;2022-07-29T07:30:54;21.60;99.90
14471;DHT22;7321;50.802;4.336;2022-07-29T07:33:20;21.70;99.90
14471;DHT22;7321;50.802;4.336;2022-07-29T07:35:46;21.70;99.90
14471;DHT22;7321;50.802;4.336;2022-07-29T07:38:12;21.60;99.90
14471;DHT22;7321;50.802;4.336;2022-07-29T07:40:38;21.80;99.90
14471;DHT22;7321;50.802;4.336;2022-07-29T07:43:04;21.90;99.90
14471;DHT22;7321;50.802;4.336;2022-07-29T07:45:30;21.90;99.90
14471;DHT22;7321;50.802;4.336;2022-07-29T07:47:58;21.90;99.90
14471;DHT22;7321;50.802;4.336;2022-07-29T07:50:26;22.00;99.90
14471;DHT22;7321;50.802;4.336;2022-07-29T07:52:54;22.10;99.90
14471;DHT22;7321;50.802;4.336;2022-07-29T07:55:23;22.00;99.90
14471;DHT22;7321;50.802;4.336;2022-07-29T07:57:49;21.90;99.90
14471;DHT22;7321;50.802;4.336;2022-07-29T08:00:16;21.90;99.90
14471;DHT22;7321;50.802;4.336;2022-07-29T08:02:42;22.00;99.90
14471;DHT22;7321;50.802;4.336;2022-07-29T08:05:09;22.10;99.90
14471;DHT22;7321;50.802;4.336;2022-07-29T08:07:35;22.10;99.90
14471;DHT22;7321;50.802;4.336;2022-07-29T08:10:02;22.20;99.90
14471;DHT22;7321;50.802;4.336;2022-07-29T08:12:28;22.30;99.90
14471;DHT22;7321;50.802;4.336;2022-07-29T08:14:54;22.30;99.90
14471;DHT22;7321;50.802;4.336;2022-07-29T08:17:20;22.30;99.90
14471;DHT22;7321;50.802;4.336;2022-07-29T08:19:46;22.20;99.90
14471;DHT22;7321;50.802;4.336;2022-07-29T08:22:14;22.20;99.90
14471;DHT22;7321;50.802;4.336;2022-07-29T08:24:39;22.40;99.90
14471;DHT22;7321;50.802;4.336;2022-07-29T08:27:09;22.70;99.90
14471;DHT22;7321;50.802;4.336;2022-07-29T08:29:35;22.70;99.90
14471;DHT22;7321;50.802;4.336;2022-07-29T08:32:01;22.80;99.90
14471;DHT22;7321;50.802;4.336;2022-07-29T08:34:27;23.00;99.90
14471;DHT22;7321;50.802;4.336;2022-07-29T08:36:54;23.10;99.90
14471;DHT22;7321;50.802;4.336;2022-07-29T08:39:21;23.20;99.90
14471;DHT22;7321;50.802;4.336;2022-07-29T08:41:47;23.30;99.90
14471;DHT22;7321;50.802;4.336;2022-07-29T08:44:16;23.50;99.90
14471;DHT22;7321;50.802;4.336;2022-07-29T08:46:42;23.70;99.90
14471;DHT22;7321;50.802;4.336;2022-07-29T08:49:08;23.80;99.90
14471;DHT22;7321;50.802;4.336;2022-07-29T08:51:36;24.00;99.90
14471;DHT22;7321;50.802;4.336;2022-07-29T08:54:05;23.90;99.90
14471;DHT22;7321;50.802;4.336;2022-07-29T08:56:31;24.00;99.90
14471;DHT22;7321;50.802;4.336;2022-07-29T08:58:58;23.90;99.90
14471;DHT22;7321;50.802;4.336;2022-07-29T09:01:27;24.00;99.90
14471;DHT22;7321;50.802;4.336;2022-07-29T09:03:56;23.90;99.90
14471;DHT22;7321;50.802;4.336;2022-07-29T09:06:24;24.00;99.90
14471;DHT22;7321;50.802;4.336;2022-07-29T09:08:55;24.20;99.90
14471;DHT22;7321;50.802;4.336;2022-07-29T09:11:24;24.10;99.90
14471;DHT22;7321;50.802;4.336;2022-07-29T09:13:49;24.30;99.90
14471;DHT22;7321;50.802;4.336;2022-07-29T09:16:15;24.20;99.90
14471;DHT22;7321;50.802;4.336;2022-07-29T09:18:43;24.20;99.90
14471;DHT22;7321;50.802;4.336;2022-07-29T09:21:11;24.30;99.90
14471;DHT22;7321;50.802;4.336;2022-07-29T09:24:02;24.30;99.90
14471;DHT22;7321;50.802;4.336;2022-07-29T09:26:33;24.40;99.90
14471;DHT22;7321;50.802;4.336;2022-07-29T09:28:59;24.40;99.90
14471;DHT22;7321;50.802;4.336;2022-07-29T09:31:38;24.40;99.90
14471;DHT22;7321;50.802;4.336;2022-07-29T09:34:06;24.40;99.90
14471;DHT22;7321;50.802;4.336;2022-07-29T09:39:07;24.60;99.90
14471;DHT22;7321;50.802;4.336;2022-07-29T09:41:50;24.40;99.90
14471;DHT22;7321;50.802;4.336;2022-07-29T09:44:19;24.40;99.90
14471;DHT22;7321;50.802;4.336;2022-07-29T09:47:02;24.30;99.90
14471;DHT22;7321;50.802;4.336;2022-07-29T09:49:36;24.50;99.90
14471;DHT22;7321;50.802;4.336;2022-07-29T09:52:14;24.60;99.90
14471;DHT22;7321;50.802;4.336;2022-07-29T09:54:40;24.80;99.90
14471;DHT22;7321;50.802;4.336;2022-07-29T09:57:08;24.90;99.90
14471;DHT22;7321;50.802;4.336;2022-07-29T09:59:38;24.90;99.90
14471;DHT22;7321;50.802;4.336;2022-07-29T10:02:13;24.90;99.90
14471;DHT22;7321;50.802;4.336;2022-07-29T10:04:42;24.90;99.90
14471;DHT22;7321;50.802;4.336;2022-07-29T10:07:09;25.00;99.90
14471;DHT22;7321;50.802;4.336;2022-07-29T10:09:35;25.00;99.90
14471;DHT22;7321;50.802;4.336;2022-07-29T10:12:10;25.00;99.90
14471;DHT22;7321;50.802;4.336;2022-07-29T10:14:37;25.10;99.90
14471;DHT22;7321;50.802;4.336;2022-07-29T10:17:08;25.10;99.90
14471;DHT22;7321;50.802;4.336;2022-07-29T10:19:36;25.10;99.90
14471;DHT22;7321;50.802;4.336;2022-07-29T10:22:05;25.30;99.90
14471;DHT22;7321;50.802;4.336;2022-07-29T10:24:33;25.20;99.90
14471;DHT22;7321;50.802;4.336;2022-07-29T10:27:00;25.10;99.90
14471;DHT22;7321;50.802;4.336;2022-07-29T10:29:27;25.00;99.90
14471;DHT22;7321;50.802;4.336;2022-07-29T10:40:41;25.20;99.90
14471;DHT22;7321;50.802;4.336;2022-07-29T10:43:31;25.20;99.90
14471;DHT22;7321;50.802;4.336;2022-07-29T10:46:02;25.20;99.90
14471;DHT22;7321;50.802;4.336;2022-07-29T10:48:28;25.10;99.90
14471;DHT22;7321;50.802;4.336;2022-07-29T10:51:04;25.20;99.90
14471;DHT22;7321;50.802;4.336;2022-07-29T10:53:48;25.30;99.90
14471;DHT22;7321;50.802;4.336;2022-07-29T10:56:28;25.40;99.90
14471;DHT22;7321;50.802;4.336;2022-07-29T11:01:42;25.90;99.90
14471;DHT22;7321;50.802;4.336;2022-07-29T11:04:07;26.00;99.90
14471;DHT22;7321;50.802;4.336;2022-07-29T11:09:24;25.90;99.90
14471;DHT22;7321;50.802;4.336;2022-07-29T11:11:51;25.90;99.90
14471;DHT22;7321;50.802;4.336;2022-07-29T11:14:17;25.80;99.90
14471;DHT22;7321;50.802;4.336;2022-07-29T11:19:27;26.10;99.90
14471;DHT22;7321;50.802;4.336;2022-07-29T11:21:53;26.10;99.90
14471;DHT22;7321;50.802;4.336;2022-07-29T11:24:28;26.20;99.90
14471;DHT22;7321;50.802;4.336;2022-07-29T11:29:32;26.70;99.90
14471;DHT22;7321;50.802;4.336;2022-07-29T11:32:18;26.60;99.90
14471;DHT22;7321;50.802;4.336;2022-07-29T11:34:48;26.70;99.90
14471;DHT22;7321;50.802;4.336;2022-07-29T11:37:15;26.70;99.90
14471;DHT22;7321;50.802;4.336;2022-07-29T11:40:08;26.70;99.90
14471;DHT22;7321;50.802;4.336;2022-07-29T11:47:46;27.00;99.90
14471;DHT22;7321;50.802;4.336;2022-07-29T11:50:15;27.10;99.90
14471;DHT22;7321;50.802;4.336;2022-07-29T11:52:44;27.10;99.90
14471;DHT22;7321;50.802;4.336;2022-07-29T11:55:21;27.10;99.90
14471;DHT22;7321;50.802;4.336;2022-07-29T11:57:55;27.10;99.90
14471;DHT22;7321;50.802;4.336;2022-07-29T12:00:35;27.00;99.90
14471;DHT22;7321;50.802;4.336;2022-07-29T12:03:03;26.90;99.90
14471;DHT22;7321;50.802;4.336;2022-07-29T12:05:37;27.00;99.90
14471;DHT22;7321;50.802;4.336;2022-07-29T12:08:07;26.90;99.90
14471;DHT22;7321;50.802;4.336;2022-07-29T12:10:33;26.80;99.90
14471;DHT22;7321;50.802;4.336;2022-07-29T12:12:59;26.90;99.90
14471;DHT22;7321;50.802;4.336;2022-07-29T12:15:25;27.10;99.90
14471;DHT22;7321;50.802;4.336;2022-07-29T12:17:51;27.20;99.90
14471;DHT22;7321;50.802;4.336;2022-07-29T12:20:30;27.40;99.90
14471;DHT22;7321;50.802;4.336;2022-07-29T12:22:56;27.60;99.90
14471;DHT22;7321;50.802;4.336;2022-07-29T12:25:23;27.50;99.90
14471;DHT22;7321;50.802;4.336;2022-07-29T12:28:06;27.70;99.90
14471;DHT22;7321;50.802;4.336;2022-07-29T12:30:37;28.00;99.90
14471;DHT22;7321;50.802;4.336;2022-07-29T12:33:23;27.90;99.90
14471;DHT22;7321;50.802;4.336;2022-07-29T12:35:52;27.80;99.90
14471;DHT22;7321;50.802;4.336;2022-07-29T12:38:19;27.80;99.90
14471;DHT22;7321;50.802;4.336;2022-07-29T12:40:46;28.00;99.90
14471;DHT22;7321;50.802;4.336;2022-07-29T12:43:19;27.80;99.90
14471;DHT22;7321;50.802;4.336;2022-07-29T12:45:56;27.90;99.90
14471;DHT22;7321;50.802;4.336;2022-07-29T12:48:36;27.90;99.90
14471;DHT22;7321;50.802;4.336;2022-07-29T12:51:04;27.60;99.90
14471;DHT22;7321;50.802;4.336;2022-07-29T12:53:32;27.60;99.90
14471;DHT22;7321;50.802;4.336;2022-07-29T12:55:58;27.60;99.90
14471;DHT22;7321;50.802;4.336;2022-07-29T12:58:28;27.40;99.90
14471;DHT22;7321;50.802;4.336;2022-07-29T13:01:01;27.30;99.90
14471;DHT22;7321;50.802;4.336;2022-07-29T13:03:28;27.30;99.90
14471;DHT22;7321;50.802;4.336;2022-07-29T13:05:55;27.20;99.90
14471;DHT22;7321;50.802;4.336;2022-07-29T13:08:20;27.30;99.90
14471;DHT22;7321;50.802;4.336;2022-07-29T13:10:46;27.10;99.90
14471;DHT22;7321;50.802;4.336;2022-07-29T13:13:14;27.30;99.90
14471;DHT22;7321;50.802;4.336;2022-07-29T13:15:42;27.60;99.90
14471;DHT22;7321;50.802;4.336;2022-07-29T13:18:31;27.80;99.90
14471;DHT22;7321;50.802;4.336;2022-07-29T13:21:11;27.70;99.90
14471;DHT22;7321;50.802;4.336;2022-07-29T13:23:37;27.40;99.90
14471;DHT22;7321;50.802;4.336;2022-07-29T13:26:08;27.40;99.90
14471;DHT22;7321;50.802;4.336;2022-07-29T13:28:34;27.40;99.90
14471;DHT22;7321;50.802;4.336;2022-07-29T13:31:00;27.60;99.90
14471;DHT22;7321;50.802;4.336;2022-07-29T13:33:26;27.60;99.90
14471;DHT22;7321;50.802;4.336;2022-07-29T13:35:52;27.80;99.90
14471;DHT22;7321;50.802;4.336;2022-07-29T13:38:18;27.60;99.90
14471;DHT22;7321;50.802;4.336;2022-07-29T13:40:44;27.50;99.90
14471;DHT22;7321;50.802;4.336;2022-07-29T13:43:10;27.40;99.90
14471;DHT22;7321;50.802;4.336;2022-07-29T13:45:36;27.60;99.90
14471;DHT22;7321;50.802;4.336;2022-07-29T13:48:02;27.50;99.90
14471;DHT22;7321;50.802;4.336;2022-07-29T13:50:28;27.30;99.90
14471;DHT22;7321;50.802;4.336;2022-07-29T13:52:54;27.10;99.90
14471;DHT22;7321;50.802;4.336;2022-07-29T13:55:19;27.10;99.90
14471;DHT22;7321;50.802;4.336;2022-07-29T13:57:45;27.30;99.90
14471;DHT22;7321;50.802;4.336;2022-07-29T14:00:12;27.40;99.90
14471;DHT22;7321;50.802;4.336;2022-07-29T14:02:38;27.30;99.90
14471;DHT22;7321;50.802;4.336;2022-07-29T14:05:05;27.40;99.90
14471;DHT22;7321;50.802;4.336;2022-07-29T14:07:31;27.60;99.90
14471;DHT22;7321;50.802;4.336;2022-07-29T14:09:56;27.60;99.90
14471;DHT22;7321;50.802;4.336;2022-07-29T14:12:22;27.60;99.90
14471;DHT22;7321;50.802;4.336;2022-07-29T14:14:48;27.60;99.90
14471;DHT22;7321;50.802;4.336;2022-07-29T14:17:14;27.60;99.90
14471;DHT22;7321;50.802;4.336;2022-07-29T14:19:41;27.50;99.80
14471;DHT22;7321;50.802;4.336;2022-07-29T14:22:08;27.70;99.60
14471;DHT22;7321;50.802;4.336;2022-07-29T14:24:34;27.90;99.90
14471;DHT22;7321;50.802;4.336;2022-07-29T14:27:00;28.00;98.90
14471;DHT22;7321;50.802;4.336;2022-07-29T14:29:27;28.10;98.60
14471;DHT22;7321;50.802;4.336;2022-07-29T14:31:52;28.20;98.50
14471;DHT22;7321;50.802;4.336;2022-07-29T14:34:18;27.90;98.20
14471;DHT22;7321;50.802;4.336;2022-07-29T14:36:44;27.70;98.80
14471;DHT22;7321;50.802;4.336;2022-07-29T14:39:10;27.80;99.60
14471;DHT22;7321;50.802;4.336;2022-07-29T14:41:36;27.80;99.90
14471;DHT22;7321;50.802;4.336;2022-07-29T14:44:02;27.60;99.90
14471;DHT22;7321;50.802;4.336;2022-07-29T14:46:28;27.40;99.90
14471;DHT22;7321;50.802;4.336;2022-07-29T14:48:53;27.10;99.90
14471;DHT22;7321;50.802;4.336;2022-07-29T14:51:19;27.10;99.90
14471;DHT22;7321;50.802;4.336;2022-07-29T14:53:48;27.10;99.90
14471;DHT22;7321;50.802;4.336;2022-07-29T14:56:14;27.20;99.90
14471;DHT22;7321;50.802;4.336;2022-07-29T14:58:40;27.30;99.30
14471;DHT22;7321;50.802;4.336;2022-07-29T15:01:06;27.30;97.90
14471;DHT22;7321;50.802;4.336;2022-07-29T15:03:31;27.20;97.80
14471;DHT22;7321;50.802;4.336;2022-07-29T15:05:57;27.00;98.40
14471;DHT22;7321;50.802;4.336;2022-07-29T15:08:23;27.20;98.60
14471;DHT22;7321;50.802;4.336;2022-07-29T15:10:50;27.70;98.40
14471;DHT22;7321;50.802;4.336;2022-07-29T15:13:16;28.40;97.60
14471;DHT22;7321;50.802;4.336;2022-07-29T15:15:42;29.10;96.80
14471;DHT22;7321;50.802;4.336;2022-07-29T15:18:08;29.50;95.00
14471;DHT22;7321;50.802;4.336;2022-07-29T15:20:34;29.60;95.00
14471;DHT22;7321;50.802;4.336;2022-07-29T15:23:00;29.80;95.00
14471;DHT22;7321;50.802;4.336;2022-07-29T15:25:26;29.70;95.50
14471;DHT22;7321;50.802;4.336;2022-07-29T15:27:52;29.50;96.00
14471;DHT22;7321;50.802;4.336;2022-07-29T15:30:18;29.60;95.40
14471;DHT22;7321;50.802;4.336;2022-07-29T15:32:44;29.70;95.40
14471;DHT22;7321;50.802;4.336;2022-07-29T15:35:09;29.50;95.40
14471;DHT22;7321;50.802;4.336;2022-07-29T15:37:39;29.10;96.00
14471;DHT22;7321;50.802;4.336;2022-07-29T15:40:06;28.80;96.20
14471;DHT22;7321;50.802;4.336;2022-07-29T15:42:35;28.40;96.20
14471;DHT22;7321;50.802;4.336;2022-07-29T15:45:00;28.40;96.60
14471;DHT22;7321;50.802;4.336;2022-07-29T15:47:28;28.20;97.20
14471;DHT22;7321;50.802;4.336;2022-07-29T15:49:54;28.20;97.50
14471;DHT22;7321;50.802;4.336;2022-07-29T15:52:20;28.50;97.50
14471;DHT22;7321;50.802;4.336;2022-07-29T15:54:46;28.80;97.00
14471;DHT22;7321;50.802;4.336;2022-07-29T15:57:12;28.90;96.20
14471;DHT22;7321;50.802;4.336;2022-07-29T15:59:38;29.10;96.30
14471;DHT22;7321;50.802;4.336;2022-07-29T16:02:04;29.40;96.50
14471;DHT22;7321;50.802;4.336;2022-07-29T16:04:30;29.70;95.60
14471;DHT22;7321;50.802;4.336;2022-07-29T16:06:56;29.70;95.30
14471;DHT22;7321;50.802;4.336;2022-07-29T16:09:22;29.60;94.70
14471;DHT22;7321;50.802;4.336;2022-07-29T16:11:48;29.50;94.90
14471;DHT22;7321;50.802;4.336;2022-07-29T16:14:18;29.40;95.10
14471;DHT22;7321;50.802;4.336;2022-07-29T16:16:44;29.40;95.00
14471;DHT22;7321;50.802;4.336;2022-07-29T16:19:10;29.60;94.80
14471;DHT22;7321;50.802;4.336;2022-07-29T16:21:37;30.00;94.90
14471;DHT22;7321;50.802;4.336;2022-07-29T16:24:03;30.30;94.00
14471;DHT22;7321;50.802;4.336;2022-07-29T16:26:29;30.20;93.80
14471;DHT22;7321;50.802;4.336;2022-07-29T16:28:55;30.20;94.00
14471;DHT22;7321;50.802;4.336;2022-07-29T16:31:22;30.60;93.80